Buraimi, Oman
Current Conditions -  °F | °C
As of 4:00 PM on Thursday 27 Nov 2014 (Local Time) from OMAL Reporting Station
Clear Clear  
Wind Chill: 84°   Ceiling: Unl
Heat Index: 84°   Visibility: 6mi
Dew Point: 50°   Wind: 17mph
Humidity: 30%   Direction: 340°NNW
Pressure: 29.94"   Gusts: NA
Location:  24.25°N, 55.79°E
Report Text: OMAL 271200Z 34015KT CAVOK 29/10 Q1014 A2996 NOSIG
Loading
Personal Weather Stations






























Interactive Weather Map New forecast layout! Learn more

10-Day Weather Forecast

Advertisements
Track Severe Weather on mobile